createdAt,value
2023-02-22T00:00:04.600Z,1019.17
2023-02-22T00:00:18.582Z,1019.17
2023-02-22T00:00:32.567Z,1019.17
2023-02-22T00:00:46.547Z,1019.17
2023-02-22T00:01:00.556Z,1019.16
2023-02-22T00:01:14.890Z,1019.17
2023-02-22T00:01:29.080Z,1019.17
2023-02-22T00:01:43.151Z,1019.17
2023-02-22T00:01:57.186Z,1019.17
2023-02-22T00:02:11.486Z,1019.17
2023-02-22T00:02:25.753Z,1019.17
2023-02-22T00:02:39.782Z,1019.17
2023-02-22T00:02:53.778Z,1019.17
2023-02-22T00:03:08.101Z,1019.17
2023-02-22T00:03:22.187Z,1019.17
2023-02-22T00:03:36.207Z,1019.17
2023-02-22T00:03:50.187Z,1019.17
2023-02-22T00:04:04.166Z,1019.17
2023-02-22T00:04:18.157Z,1019.17
2023-02-22T00:04:32.150Z,1019.18
2023-02-22T00:04:46.137Z,1019.18
2023-02-22T00:05:00.152Z,1019.18
2023-02-22T00:05:14.137Z,1019.18
2023-02-22T00:05:28.129Z,1019.18
2023-02-22T00:05:42.122Z,1019.18
2023-02-22T00:05:56.113Z,1019.18
2023-02-22T00:06:10.112Z,1019.18
2023-02-22T00:06:24.128Z,1019.18
2023-02-22T00:06:38.114Z,1019.18
2023-02-22T00:06:52.112Z,1019.18
2023-02-22T00:07:06.098Z,1019.18
2023-02-22T00:07:20.112Z,1019.18
2023-02-22T00:07:34.094Z,1019.18
2023-02-22T00:07:48.084Z,1019.18
2023-02-22T00:08:02.160Z,1019.18
2023-02-22T00:08:16.181Z,1019.18
2023-02-22T00:08:30.166Z,1019.18
2023-02-22T00:08:44.179Z,1019.18
2023-02-22T00:08:58.168Z,1019.18
2023-02-22T00:09:12.245Z,1019.18
2023-02-22T00:09:26.231Z,1019.17
2023-02-22T00:09:40.246Z,1019.18
2023-02-22T00:09:54.231Z,1019.17
2023-02-22T00:10:08.247Z,1019.18
2023-02-22T00:10:36.229Z,1019.18
2023-02-22T00:10:50.244Z,1019.17
2023-02-22T00:11:04.261Z,1019.17
2023-02-22T00:11:18.598Z,1019.17
2023-02-22T00:11:32.750Z,1019.17
2023-02-22T00:11:46.739Z,1019.18
2023-02-22T00:12:00.724Z,1019.18
2023-02-22T00:12:14.702Z,1019.17
2023-02-22T00:12:28.688Z,1019.17
2023-02-22T00:12:42.678Z,1019.17
2023-02-22T00:12:56.654Z,1019.17
2023-02-22T00:13:10.652Z,1019.17
2023-02-22T00:13:24.640Z,1019.17
2023-02-22T00:13:38.650Z,1019.17
2023-02-22T00:13:52.633Z,1019.17
2023-02-22T00:14:06.649Z,1019.17
2023-02-22T00:14:20.711Z,1019.17
2023-02-22T00:14:34.727Z,1019.17
2023-02-22T00:14:48.708Z,1019.17
2023-02-22T00:15:16.686Z,1019.17
2023-02-22T00:15:30.689Z,1019.17
2023-02-22T00:15:44.688Z,1019.17
2023-02-22T00:15:58.715Z,1019.16
2023-02-22T00:16:12.783Z,1019.17
2023-02-22T00:16:26.889Z,1019.17
2023-02-22T00:16:40.969Z,1019.17
2023-02-22T00:16:54.994Z,1019.17
2023-02-22T00:17:09.009Z,1019.17
2023-02-22T00:17:23.006Z,1019.18
2023-02-22T00:17:36.988Z,1019.18
2023-02-22T00:17:50.984Z,1019.18
2023-02-22T00:18:04.969Z,1019.18
2023-02-22T00:18:18.969Z,1019.18
2023-02-22T00:18:32.948Z,1019.18
2023-02-22T00:18:46.939Z,1019.18
2023-02-22T00:19:00.935Z,1019.18
2023-02-22T00:19:14.933Z,1019.18
2023-02-22T00:19:28.937Z,1019.18
2023-02-22T00:19:56.910Z,1019.18
2023-02-22T00:20:10.921Z,1019.18
2023-02-22T00:20:24.916Z,1019.18
2023-02-22T00:20:38.913Z,1019.18
2023-02-22T00:20:52.894Z,1019.18
2023-02-22T00:21:06.889Z,1019.19
2023-02-22T00:21:20.888Z,1019.19
2023-02-22T00:21:34.884Z,1019.19
2023-02-22T00:21:48.877Z,1019.19
2023-02-22T00:22:02.871Z,1019.20
2023-02-22T00:22:16.868Z,1019.19
2023-02-22T00:22:30.852Z,1019.19
2023-02-22T00:22:44.824Z,1019.19
2023-02-22T00:22:58.819Z,1019.19
2023-02-22T00:23:12.803Z,1019.19
2023-02-22T00:23:26.794Z,1019.19
2023-02-22T00:23:40.784Z,1019.19
2023-02-22T00:23:54.839Z,1019.19
2023-02-22T00:24:08.852Z,1019.19
2023-02-22T00:24:22.935Z,1019.19
2023-02-22T00:24:37.063Z,1019.19
2023-02-22T00:24:51.054Z,1019.19
2023-02-22T00:25:05.043Z,1019.19
2023-02-22T00:25:19.049Z,1019.19
2023-02-22T00:25:33.032Z,1019.19
2023-02-22T00:25:47.043Z,1019.19
2023-02-22T00:26:01.021Z,1019.19
2023-02-22T00:26:15.008Z,1019.19
2023-02-22T00:26:29.001Z,1019.19
2023-02-22T00:26:43.036Z,1019.20
2023-02-22T00:26:57.021Z,1019.20
2023-02-22T00:27:11.020Z,1019.20
2023-02-22T00:27:24.994Z,1019.20
2023-02-22T00:27:39.004Z,1019.20
2023-02-22T00:28:06.962Z,1019.20
2023-02-22T00:28:20.970Z,1019.20
2023-02-22T00:28:34.960Z,1019.21
2023-02-22T00:28:48.946Z,1019.21
2023-02-22T00:29:02.928Z,1019.21
2023-02-22T00:29:16.933Z,1019.21
2023-02-22T00:29:30.941Z,1019.21
2023-02-22T00:29:44.919Z,1019.21
2023-02-22T00:29:58.932Z,1019.22
2023-02-22T00:30:12.955Z,1019.22
2023-02-22T00:30:27.004Z,1019.23
2023-02-22T00:30:41.073Z,1019.23
2023-02-22T00:30:55.260Z,1019.23
2023-02-22T00:31:09.318Z,1019.23
2023-02-22T00:31:23.358Z,1019.23
2023-02-22T00:31:37.457Z,1019.23
2023-02-22T00:31:51.602Z,1019.23
2023-02-22T00:32:05.790Z,1019.23
2023-02-22T00:32:19.941Z,1019.23
2023-02-22T00:32:34.061Z,1019.23
2023-02-22T00:32:48.116Z,1019.23
2023-02-22T00:33:16.097Z,1019.22
2023-02-22T00:33:30.119Z,1019.22
2023-02-22T00:33:44.109Z,1019.22
2023-02-22T00:33:58.096Z,1019.22
2023-02-22T00:34:12.082Z,1019.22
2023-02-22T00:34:26.088Z,1019.22
2023-02-22T00:34:40.084Z,1019.22
2023-02-22T00:34:54.090Z,1019.23
2023-02-22T00:35:08.078Z,1019.22
2023-02-22T00:35:22.073Z,1019.23
2023-02-22T00:35:36.065Z,1019.22
2023-02-22T00:35:50.074Z,1019.22
2023-02-22T00:36:04.057Z,1019.22
2023-02-22T00:36:18.045Z,1019.22
2023-02-22T00:36:32.032Z,1019.21
2023-02-22T00:36:46.023Z,1019.21
2023-02-22T00:37:00.009Z,1019.21
2023-02-22T00:37:14.007Z,1019.21
2023-02-22T00:37:27.989Z,1019.21
2023-02-22T00:37:55.929Z,1019.20
2023-02-22T00:38:09.921Z,1019.20
2023-02-22T00:38:23.904Z,1019.20
2023-02-22T00:38:38.033Z,1019.20
2023-02-22T00:38:52.026Z,1019.20
2023-02-22T00:39:06.019Z,1019.20
2023-02-22T00:39:20.000Z,1019.20
2023-02-22T00:39:34.001Z,1019.20
2023-02-22T00:39:48.004Z,1019.20
2023-02-22T00:40:02.020Z,1019.20
2023-02-22T00:40:15.996Z,1019.20
2023-02-22T00:40:30.005Z,1019.20
2023-02-22T00:40:43.992Z,1019.20
2023-02-22T00:40:57.981Z,1019.20
2023-02-22T00:41:11.976Z,1019.20
2023-02-22T00:41:26.032Z,1019.21
2023-02-22T00:41:40.113Z,1019.21
2023-02-22T00:41:54.172Z,1019.20
2023-02-22T00:42:08.151Z,1019.21
2023-02-22T00:42:36.115Z,1019.20
2023-02-22T00:42:50.108Z,1019.21
2023-02-22T00:43:04.100Z,1019.21
2023-02-22T00:43:18.094Z,1019.21
2023-02-22T00:43:32.081Z,1019.21
2023-02-22T00:43:46.076Z,1019.21
2023-02-22T00:44:00.069Z,1019.21
2023-02-22T00:44:14.073Z,1019.21
2023-02-22T00:44:28.052Z,1019.21
2023-02-22T00:44:42.035Z,1019.21
2023-02-22T00:44:56.036Z,1019.21
2023-02-22T00:45:10.050Z,1019.21
2023-02-22T00:45:24.038Z,1019.21
2023-02-22T00:45:38.115Z,1019.20
2023-02-22T00:45:52.254Z,1019.20
2023-02-22T00:46:06.340Z,1019.20
2023-02-22T00:46:20.398Z,1019.20
2023-02-22T00:46:34.383Z,1019.20
2023-02-22T00:46:48.363Z,1019.19
2023-02-22T00:47:02.370Z,1019.19
2023-02-22T00:47:16.373Z,1019.19
2023-02-22T00:47:30.387Z,1019.19
2023-02-22T00:47:44.359Z,1019.19
2023-02-22T00:47:58.350Z,1019.19
2023-02-22T00:48:12.337Z,1019.18
2023-02-22T00:48:26.334Z,1019.18
2023-02-22T00:48:40.308Z,1019.18
2023-02-22T00:48:54.298Z,1019.17
2023-02-22T00:49:08.278Z,1019.18
2023-02-22T00:49:22.273Z,1019.17
2023-02-22T00:49:36.297Z,1019.17
2023-02-22T00:49:50.285Z,1019.18
2023-02-22T00:50:04.265Z,1019.17
2023-02-22T00:50:18.275Z,1019.17
2023-02-22T00:50:46.220Z,1019.17
2023-02-22T00:51:00.224Z,1019.17
2023-02-22T00:51:14.698Z,1019.17
2023-02-22T00:51:28.908Z,1019.17
2023-02-22T00:51:42.886Z,1019.17
2023-02-22T00:51:56.872Z,1019.16
2023-02-22T00:52:10.872Z,1019.16
2023-02-22T00:52:24.863Z,1019.16
2023-02-22T00:52:38.862Z,1019.16
2023-02-22T00:52:52.857Z,1019.16
2023-02-22T00:53:06.856Z,1019.16
2023-02-22T00:53:20.854Z,1019.16
2023-02-22T00:53:34.858Z,1019.16
2023-02-22T00:53:48.841Z,1019.16
2023-02-22T00:54:02.837Z,1019.16
2023-02-22T00:54:16.839Z,1019.16
2023-02-22T00:54:30.831Z,1019.16
2023-02-22T00:54:44.803Z,1019.16
2023-02-22T00:54:58.829Z,1019.16
2023-02-22T00:55:26.809Z,1019.16
2023-02-22T00:55:40.821Z,1019.17
2023-02-22T00:55:54.818Z,1019.17
2023-02-22T00:56:08.811Z,1019.17
2023-02-22T00:56:22.803Z,1019.17
2023-02-22T00:56:36.786Z,1019.17
2023-02-22T00:56:50.778Z,1019.17
2023-02-22T00:57:04.778Z,1019.18
2023-02-22T00:57:18.773Z,1019.18
2023-02-22T00:57:32.763Z,1019.18
2023-02-22T00:57:46.754Z,1019.18
2023-02-22T00:58:00.745Z,1019.18
2023-02-22T00:58:14.739Z,1019.18
2023-02-22T00:58:28.720Z,1019.18
2023-02-22T00:58:42.709Z,1019.18
2023-02-22T00:58:56.703Z,1019.18
2023-02-22T00:59:10.705Z,1019.17
2023-02-22T00:59:24.698Z,1019.17
2023-02-22T00:59:38.692Z,1019.17
2023-02-22T01:00:06.683Z,1019.16
2023-02-22T01:00:20.667Z,1019.16
2023-02-22T01:00:34.666Z,1019.16
2023-02-22T01:00:48.753Z,1019.16
2023-02-22T01:01:02.834Z,1019.15
2023-02-22T01:01:17.177Z,1019.15
2023-02-22T01:01:31.485Z,1019.15
2023-02-22T01:01:45.514Z,1019.15
2023-02-22T01:01:59.516Z,1019.15
2023-02-22T01:02:14.028Z,1019.15
2023-02-22T01:02:28.074Z,1019.15
2023-02-22T01:02:42.219Z,1019.15
2023-02-22T01:02:56.272Z,1019.15
2023-02-22T01:03:10.254Z,1019.15
2023-02-22T01:03:24.549Z,1019.15
2023-02-22T01:03:38.600Z,1019.15
2023-02-22T01:03:52.608Z,1019.15
2023-02-22T01:04:06.646Z,1019.15
2023-02-22T01:04:20.684Z,1019.15
2023-02-22T01:04:34.778Z,1019.15
2023-02-22T01:04:48.788Z,1019.14
2023-02-22T01:05:02.866Z,1019.14
2023-02-22T01:05:16.934Z,1019.14
2023-02-22T01:05:30.971Z,1019.14
2023-02-22T01:05:45.077Z,1019.14
2023-02-22T01:05:59.093Z,1019.14
2023-02-22T01:06:13.092Z,1019.14
2023-02-22T01:06:27.067Z,1019.14
2023-02-22T01:06:41.072Z,1019.14
2023-02-22T01:06:55.055Z,1019.14
2023-02-22T01:07:09.038Z,1019.14
2023-02-22T01:07:23.027Z,1019.14
2023-02-22T01:07:37.014Z,1019.13
2023-02-22T01:07:51.005Z,1019.13
2023-02-22T01:08:05.166Z,1019.13
2023-02-22T01:08:19.164Z,1019.13
2023-02-22T01:08:47.144Z,1019.13
2023-02-22T01:09:01.145Z,1019.13
2023-02-22T01:09:15.130Z,1019.13
2023-02-22T01:09:29.133Z,1019.13
2023-02-22T01:09:43.109Z,1019.12
2023-02-22T01:09:57.148Z,1019.12
2023-02-22T01:10:11.130Z,1019.12
2023-02-22T01:10:25.146Z,1019.12
2023-02-22T01:10:39.189Z,1019.12
2023-02-22T01:10:53.236Z,1019.12
2023-02-22T01:11:07.221Z,1019.12
2023-02-22T01:11:21.224Z,1019.11
2023-02-22T01:11:35.210Z,1019.12
2023-02-22T01:11:49.208Z,1019.12
2023-02-22T01:12:03.189Z,1019.12
2023-02-22T01:12:17.199Z,1019.11
2023-02-22T01:12:31.185Z,1019.11
2023-02-22T01:12:45.176Z,1019.11
2023-02-22T01:12:59.152Z,1019.11
2023-02-22T01:13:27.139Z,1019.10
2023-02-22T01:13:41.126Z,1019.10
2023-02-22T01:13:55.133Z,1019.10
2023-02-22T01:14:09.126Z,1019.10
2023-02-22T01:14:23.137Z,1019.09
2023-02-22T01:14:37.121Z,1019.09
2023-02-22T01:14:51.122Z,1019.09
2023-02-22T01:15:05.129Z,1019.09
2023-02-22T01:15:19.118Z,1019.09
2023-02-22T01:15:33.114Z,1019.09
2023-02-22T01:15:47.106Z,1019.08
2023-02-22T01:16:01.100Z,1019.08
2023-02-22T01:16:15.141Z,1019.07
2023-02-22T01:16:29.182Z,1019.07
2023-02-22T01:16:43.247Z,1019.06
2023-02-22T01:16:57.369Z,1019.06
2023-02-22T01:17:11.450Z,1019.05
2023-02-22T01:17:25.457Z,1019.05
2023-02-22T01:17:39.443Z,1019.05
2023-02-22T01:18:07.442Z,1019.05
2023-02-22T01:18:21.442Z,1019.05
2023-02-22T01:18:35.417Z,1019.05
2023-02-22T01:18:49.406Z,1019.05
2023-02-22T01:19:03.384Z,1019.05
2023-02-22T01:19:17.380Z,1019.04
2023-02-22T01:19:31.362Z,1019.04
2023-02-22T01:19:45.348Z,1019.04
2023-02-22T01:19:59.343Z,1019.04
2023-02-22T01:20:13.356Z,1019.04
2023-02-22T01:20:27.347Z,1019.04
2023-02-22T01:20:41.333Z,1019.04
2023-02-22T01:20:55.316Z,1019.04
2023-02-22T01:21:09.311Z,1019.04
2023-02-22T01:21:23.291Z,1019.04
2023-02-22T01:21:37.288Z,1019.03
2023-02-22T01:21:51.266Z,1019.03
2023-02-22T01:22:05.307Z,1019.03
2023-02-22T01:22:19.339Z,1019.03
2023-02-22T01:22:33.318Z,1019.02
2023-02-22T01:22:47.299Z,1019.02
2023-02-22T01:23:01.302Z,1019.02
2023-02-22T01:23:15.282Z,1019.02
2023-02-22T01:23:29.276Z,1019.01
2023-02-22T01:23:43.250Z,1019.01
2023-02-22T01:23:57.239Z,1019.01
2023-02-22T01:24:11.215Z,1019.01
2023-02-22T01:24:25.234Z,1019.01
2023-02-22T01:24:39.223Z,1019.00
2023-02-22T01:24:53.219Z,1019.00
2023-02-22T01:25:07.201Z,1018.99
2023-02-22T01:25:21.192Z,1018.99
2023-02-22T01:25:35.191Z,1018.99
2023-02-22T01:25:49.264Z,1018.99
2023-02-22T01:26:17.234Z,1018.98
2023-02-22T01:26:31.209Z,1018.98
2023-02-22T01:26:45.196Z,1018.97
2023-02-22T01:26:59.170Z,1018.97
2023-02-22T01:27:13.157Z,1018.97
2023-02-22T01:27:27.155Z,1018.96
2023-02-22T01:27:41.146Z,1018.96
2023-02-22T01:27:55.133Z,1018.96
2023-02-22T01:28:09.121Z,1018.95
2023-02-22T01:28:23.113Z,1018.94
2023-02-22T01:28:37.113Z,1018.94
2023-02-22T01:28:51.093Z,1018.94
2023-02-22T01:29:05.084Z,1018.93
2023-02-22T01:29:19.071Z,1018.92
2023-02-22T01:29:33.059Z,1018.91
2023-02-22T01:29:47.042Z,1018.91
2023-02-22T01:30:01.024Z,1018.91
2023-02-22T01:30:15.115Z,1018.91
2023-02-22T01:30:29.324Z,1018.90
2023-02-22T01:30:57.583Z,1018.89
2023-02-22T01:31:11.748Z,1018.89
2023-02-22T01:31:25.844Z,1018.89
2023-02-22T01:31:40.011Z,1018.88
2023-02-22T01:31:54.112Z,1018.88
2023-02-22T01:32:08.225Z,1018.87
2023-02-22T01:32:22.289Z,1018.87
2023-02-22T01:32:36.295Z,1018.87
2023-02-22T01:32:50.312Z,1018.86
2023-02-22T01:33:04.304Z,1018.86
2023-02-22T01:33:18.282Z,1018.86
2023-02-22T01:33:32.284Z,1018.86
2023-02-22T01:33:46.283Z,1018.85
2023-02-22T01:34:00.287Z,1018.85
2023-02-22T01:34:14.260Z,1018.85
2023-02-22T01:34:28.258Z,1018.85
2023-02-22T01:34:42.243Z,1018.84
2023-02-22T01:34:56.257Z,1018.84
2023-02-22T01:35:10.251Z,1018.83
2023-02-22T01:35:24.256Z,1018.83
2023-02-22T01:35:38.244Z,1018.83
2023-02-22T01:36:06.198Z,1018.83
2023-02-22T01:36:20.185Z,1018.82
2023-02-22T01:36:34.166Z,1018.82
2023-02-22T01:36:48.158Z,1018.82
2023-02-22T01:37:02.142Z,1018.82
2023-02-22T01:37:16.168Z,1018.82
2023-02-22T01:37:30.144Z,1018.81
2023-02-22T01:37:44.137Z,1018.82
2023-02-22T01:37:58.196Z,1018.81
2023-02-22T01:38:12.260Z,1018.81
2023-02-22T01:38:26.245Z,1018.80
2023-02-22T01:38:40.248Z,1018.80
2023-02-22T01:38:54.240Z,1018.80
2023-02-22T01:39:08.228Z,1018.80
2023-02-22T01:39:22.236Z,1018.80
2023-02-22T01:39:36.245Z,1018.80
2023-02-22T01:39:50.241Z,1018.80
2023-02-22T01:40:04.216Z,1018.80
2023-02-22T01:40:18.199Z,1018.79
2023-02-22T01:40:46.246Z,1018.80
2023-02-22T01:41:00.245Z,1018.80
2023-02-22T01:41:14.680Z,1018.80
2023-02-22T01:41:30.601Z,1018.79
2023-02-22T01:41:42.022Z,1018.79
2023-02-22T01:41:56.000Z,1018.79
2023-02-22T01:42:10.001Z,1018.79
2023-02-22T01:42:24.002Z,1018.79
2023-02-22T01:42:37.993Z,1018.78
2023-02-22T01:42:51.972Z,1018.78
2023-02-22T01:43:05.966Z,1018.78
2023-02-22T01:43:19.970Z,1018.78
2023-02-22T01:43:33.966Z,1018.78
2023-02-22T01:43:47.969Z,1018.78
2023-02-22T01:44:01.982Z,1018.78
2023-02-22T01:44:15.958Z,1018.78
2023-02-22T01:44:29.954Z,1018.78
2023-02-22T01:44:43.945Z,1018.77
2023-02-22T01:44:57.928Z,1018.77
2023-02-22T01:45:25.884Z,1018.77
2023-02-22T01:45:39.875Z,1018.77
2023-02-22T01:45:53.910Z,1018.77
2023-02-22T01:46:07.940Z,1018.77
2023-02-22T01:46:22.121Z,1018.76
2023-02-22T01:46:36.173Z,1018.76
2023-02-22T01:46:50.170Z,1018.76
2023-02-22T01:47:04.200Z,1018.75
2023-02-22T01:47:18.200Z,1018.76
2023-02-22T01:47:32.196Z,1018.75
2023-02-22T01:47:46.190Z,1018.75
2023-02-22T01:48:00.186Z,1018.75
2023-02-22T01:48:14.220Z,1018.74
2023-02-22T01:48:28.198Z,1018.74
2023-02-22T01:48:42.206Z,1018.73
2023-02-22T01:48:56.198Z,1018.73
2023-02-22T01:49:10.185Z,1018.73
2023-02-22T01:49:24.169Z,1018.73
2023-02-22T01:49:38.159Z,1018.72
2023-02-22T01:49:52.141Z,1018.72
2023-02-22T01:50:06.139Z,1018.72
2023-02-22T01:50:20.139Z,1018.71
2023-02-22T01:50:34.131Z,1018.71
2023-02-22T01:50:48.111Z,1018.71
2023-02-22T01:51:02.115Z,1018.71
2023-02-22T01:51:16.633Z,1018.71
2023-02-22T01:51:30.789Z,1018.71
2023-02-22T01:51:44.809Z,1018.70
2023-02-22T01:51:58.794Z,1018.70
2023-02-22T01:52:12.815Z,1018.70
2023-02-22T01:52:26.799Z,1018.70
2023-02-22T01:52:40.790Z,1018.70
2023-02-22T01:52:54.778Z,1018.69
2023-02-22T01:53:08.771Z,1018.69
2023-02-22T01:53:36.750Z,1018.69
2023-02-22T01:53:50.775Z,1018.69
2023-02-22T01:54:04.774Z,1018.69
2023-02-22T01:54:18.800Z,1018.69
2023-02-22T01:54:32.795Z,1018.69
2023-02-22T01:54:46.779Z,1018.69
2023-02-22T01:55:00.762Z,1018.68
2023-02-22T01:55:14.754Z,1018.68
2023-02-22T01:55:28.751Z,1018.68
2023-02-22T01:55:42.726Z,1018.68
2023-02-22T01:55:56.711Z,1018.68
2023-02-22T01:56:10.702Z,1018.68
2023-02-22T01:56:24.705Z,1018.68
2023-02-22T01:56:38.683Z,1018.68
2023-02-22T01:56:52.669Z,1018.68
2023-02-22T01:57:06.646Z,1018.68
2023-02-22T01:57:20.647Z,1018.67
2023-02-22T01:57:34.644Z,1018.67
2023-02-22T01:57:48.638Z,1018.67
2023-02-22T01:58:16.604Z,1018.66
2023-02-22T01:58:30.618Z,1018.66
2023-02-22T01:58:44.597Z,1018.65
2023-02-22T01:58:58.596Z,1018.65
2023-02-22T01:59:12.568Z,1018.65
2023-02-22T01:59:26.556Z,1018.65
2023-02-22T01:59:40.557Z,1018.65
2023-02-22T01:59:54.559Z,1018.65
2023-02-22T02:00:08.537Z,1018.64
2023-02-22T02:00:22.538Z,1018.64
2023-02-22T02:00:36.523Z,1018.63
2023-02-22T02:00:50.524Z,1018.63
2023-02-22T02:01:04.510Z,1018.63
2023-02-22T02:01:18.909Z,1018.62
2023-02-22T02:01:33.055Z,1018.62
2023-02-22T02:01:47.064Z,1018.62
2023-02-22T02:02:01.046Z,1018.62
2023-02-22T02:02:15.038Z,1018.62
2023-02-22T02:02:29.029Z,1018.61
2023-02-22T02:02:56.982Z,1018.61
2023-02-22T02:03:10.976Z,1018.61
2023-02-22T02:03:24.965Z,1018.61
2023-02-22T02:03:38.991Z,1018.61
2023-02-22T02:03:53.065Z,1018.60
2023-02-22T02:04:07.174Z,1018.60
2023-02-22T02:04:21.180Z,1018.60
2023-02-22T02:04:35.161Z,1018.60
2023-02-22T02:04:49.198Z,1018.59
2023-02-22T02:05:03.265Z,1018.59
2023-02-22T02:05:17.297Z,1018.59
2023-02-22T02:05:31.357Z,1018.59
2023-02-22T02:05:45.377Z,1018.59
2023-02-22T02:05:59.368Z,1018.59
2023-02-22T02:06:27.315Z,1018.59
2023-02-22T02:06:41.308Z,1018.59
2023-02-22T02:06:55.319Z,1018.59
2023-02-22T02:07:09.323Z,1018.58
2023-02-22T02:07:23.317Z,1018.59
2023-02-22T02:07:37.316Z,1018.59
2023-02-22T02:07:51.305Z,1018.59
2023-02-22T02:08:05.288Z,1018.59
2023-02-22T02:08:19.277Z,1018.59
2023-02-22T02:08:33.277Z,1018.59
2023-02-22T02:08:47.295Z,1018.59
2023-02-22T02:09:01.284Z,1018.60
2023-02-22T02:09:15.256Z,1018.60
2023-02-22T02:09:29.237Z,1018.60
2023-02-22T02:09:43.225Z,1018.60
2023-02-22T02:09:57.212Z,1018.60
2023-02-22T02:10:11.203Z,1018.60
2023-02-22T02:10:25.196Z,1018.60
2023-02-22T02:10:39.189Z,1018.60
2023-02-22T02:11:09.017Z,1018.60
2023-02-22T02:11:20.675Z,1018.60
2023-02-22T02:11:34.688Z,1018.60
2023-02-22T02:11:48.673Z,1018.60
2023-02-22T02:12:02.726Z,1018.60
2023-02-22T02:12:16.733Z,1018.60
2023-02-22T02:12:30.717Z,1018.60
2023-02-22T02:12:44.694Z,1018.61
2023-02-22T02:12:58.689Z,1018.60
2023-02-22T02:13:12.677Z,1018.60
2023-02-22T02:13:26.689Z,1018.60
2023-02-22T02:13:40.667Z,1018.60
2023-02-22T02:13:54.684Z,1018.60
2023-02-22T02:14:08.665Z,1018.59
2023-02-22T02:14:22.659Z,1018.59
2023-02-22T02:14:36.640Z,1018.59
2023-02-22T02:14:50.630Z,1018.59
2023-02-22T02:15:04.624Z,1018.58
2023-02-22T02:15:18.625Z,1018.58
2023-02-22T02:15:46.590Z,1018.58
2023-02-22T02:16:00.576Z,1018.57
2023-02-22T02:16:14.564Z,1018.57
2023-02-22T02:16:28.539Z,1018.57
2023-02-22T02:16:42.579Z,1018.56
2023-02-22T02:16:56.619Z,1018.57
2023-02-22T02:17:10.615Z,1018.56
2023-02-22T02:17:24.594Z,1018.56
2023-02-22T02:17:38.743Z,1018.56
2023-02-22T02:17:52.717Z,1018.56
2023-02-22T02:18:06.717Z,1018.56
2023-02-22T02:18:20.698Z,1018.56
2023-02-22T02:18:34.684Z,1018.56
2023-02-22T02:18:48.731Z,1018.56
2023-02-22T02:19:02.746Z,1018.56
2023-02-22T02:19:16.723Z,1018.56
2023-02-22T02:19:30.715Z,1018.56
2023-02-22T02:19:44.724Z,1018.55
2023-02-22T02:19:58.731Z,1018.55
2023-02-22T02:20:26.700Z,1018.55
2023-02-22T02:20:40.685Z,1018.54
2023-02-22T02:20:54.669Z,1018.55
2023-02-22T02:21:08.655Z,1018.55
2023-02-22T02:21:22.644Z,1018.55
2023-02-22T02:21:36.631Z,1018.55
2023-02-22T02:21:50.789Z,1018.55
2023-02-22T02:22:04.791Z,1018.55
2023-02-22T02:22:18.796Z,1018.55
2023-02-22T02:22:32.772Z,1018.55
2023-02-22T02:22:46.767Z,1018.55
2023-02-22T02:23:00.750Z,1018.55
2023-02-22T02:23:14.754Z,1018.55
2023-02-22T02:23:28.749Z,1018.55
2023-02-22T02:23:42.743Z,1018.55
2023-02-22T02:23:56.715Z,1018.55
2023-02-22T02:24:10.719Z,1018.55
2023-02-22T02:24:24.702Z,1018.55
2023-02-22T02:24:38.717Z,1018.55
2023-02-22T02:25:06.692Z,1018.56
2023-02-22T02:25:20.676Z,1018.55
2023-02-22T02:25:34.682Z,1018.56
2023-02-22T02:25:48.659Z,1018.56
2023-02-22T02:26:02.642Z,1018.56
2023-02-22T02:26:16.622Z,1018.56
2023-02-22T02:26:30.621Z,1018.56
2023-02-22T02:26:44.625Z,1018.57
2023-02-22T02:26:58.643Z,1018.57
2023-02-22T02:27:12.625Z,1018.57
2023-02-22T02:27:26.629Z,1018.57
2023-02-22T02:27:40.618Z,1018.58
2023-02-22T02:27:54.601Z,1018.58
2023-02-22T02:28:08.584Z,1018.57
2023-02-22T02:28:36.536Z,1018.57
2023-02-22T02:28:50.537Z,1018.57
2023-02-22T02:29:04.515Z,1018.57
2023-02-22T02:29:18.521Z,1018.57
2023-02-22T02:29:32.506Z,1018.57
2023-02-22T02:29:46.499Z,1018.57
2023-02-22T02:30:00.496Z,1018.57
2023-02-22T02:30:14.528Z,1018.56
2023-02-22T02:30:28.583Z,1018.56
2023-02-22T02:30:42.615Z,1018.56
2023-02-22T02:30:56.617Z,1018.56
2023-02-22T02:31:10.620Z,1018.56
2023-02-22T02:31:24.732Z,1018.56
2023-02-22T02:31:38.910Z,1018.55
2023-02-22T02:31:53.094Z,1018.55
2023-02-22T02:32:07.318Z,1018.55
2023-02-22T02:32:21.465Z,1018.55
2023-02-22T02:32:35.548Z,1018.54
2023-02-22T02:32:49.566Z,1018.54
2023-02-22T02:33:17.507Z,1018.54
2023-02-22T02:33:31.518Z,1018.54
2023-02-22T02:33:45.505Z,1018.54
2023-02-22T02:33:59.493Z,1018.54
2023-02-22T02:34:13.488Z,1018.54
2023-02-22T02:34:27.475Z,1018.54
2023-02-22T02:34:41.470Z,1018.55
2023-02-22T02:34:55.504Z,1018.54
2023-02-22T02:35:09.504Z,1018.55
2023-02-22T02:35:23.482Z,1018.55
2023-02-22T02:35:37.485Z,1018.55
2023-02-22T02:35:51.470Z,1018.55
2023-02-22T02:36:05.464Z,1018.55
2023-02-22T02:36:19.453Z,1018.55
2023-02-22T02:36:33.460Z,1018.55
2023-02-22T02:36:47.444Z,1018.55
2023-02-22T02:37:01.436Z,1018.55
2023-02-22T02:37:15.447Z,1018.55
2023-02-22T02:37:29.470Z,1018.55
2023-02-22T02:37:57.410Z,1018.55
2023-02-22T02:38:11.397Z,1018.55
2023-02-22T02:38:25.425Z,1018.55
2023-02-22T02:38:39.588Z,1018.55
2023-02-22T02:38:53.755Z,1018.56
2023-02-22T02:39:07.846Z,1018.56
2023-02-22T02:39:21.835Z,1018.56
2023-02-22T02:39:35.814Z,1018.56
2023-02-22T02:39:49.806Z,1018.56
2023-02-22T02:40:03.923Z,1018.56
2023-02-22T02:40:18.019Z,1018.56
2023-02-22T02:40:32.099Z,1018.56
2023-02-22T02:40:46.142Z,1018.56
2023-02-22T02:41:00.145Z,1018.55
2023-02-22T02:41:14.353Z,1018.55
2023-02-22T02:41:28.453Z,1018.55
2023-02-22T02:41:42.443Z,1018.55
2023-02-22T02:41:56.446Z,1018.55
2023-02-22T02:42:10.444Z,1018.55
2023-02-22T02:42:24.428Z,1018.54
2023-02-22T02:42:38.426Z,1018.54
2023-02-22T02:43:06.383Z,1018.54
2023-02-22T02:43:20.371Z,1018.54
2023-02-22T02:43:34.356Z,1018.54
2023-02-22T02:43:48.347Z,1018.54
2023-02-22T02:44:02.344Z,1018.54
2023-02-22T02:44:16.327Z,1018.54
2023-02-22T02:44:30.329Z,1018.53
2023-02-22T02:44:44.312Z,1018.52
2023-02-22T02:44:58.309Z,1018.52
2023-02-22T02:45:12.297Z,1018.52
2023-02-22T02:45:26.291Z,1018.52
2023-02-22T02:45:40.283Z,1018.51
2023-02-22T02:45:54.275Z,1018.51
2023-02-22T02:46:08.253Z,1018.51
2023-02-22T02:46:22.248Z,1018.51
2023-02-22T02:46:36.255Z,1018.50
2023-02-22T02:46:50.295Z,1018.50
2023-02-22T02:47:04.336Z,1018.50
2023-02-22T02:47:18.359Z,1018.49
2023-02-22T02:47:32.436Z,1018.49
2023-02-22T02:47:46.462Z,1018.49
2023-02-22T02:48:00.460Z,1018.49
2023-02-22T02:48:14.475Z,1018.48
2023-02-22T02:48:28.455Z,1018.48
2023-02-22T02:48:42.452Z,1018.48
2023-02-22T02:48:56.436Z,1018.48
2023-02-22T02:49:10.426Z,1018.47
2023-02-22T02:49:24.406Z,1018.47
2023-02-22T02:49:38.416Z,1018.47
2023-02-22T02:49:52.396Z,1018.47
2023-02-22T02:50:06.396Z,1018.47
2023-02-22T02:50:20.398Z,1018.47
2023-02-22T02:50:34.393Z,1018.47
2023-02-22T02:50:48.373Z,1018.47
2023-02-22T02:51:16.708Z,1018.47
2023-02-22T02:51:30.842Z,1018.46
2023-02-22T02:51:44.825Z,1018.46
2023-02-22T02:51:58.818Z,1018.46
2023-02-22T02:52:12.808Z,1018.46
2023-02-22T02:52:26.806Z,1018.46
2023-02-22T02:52:40.823Z,1018.45
2023-02-22T02:52:54.814Z,1018.45
2023-02-22T02:53:08.807Z,1018.45
2023-02-22T02:53:22.824Z,1018.45
2023-02-22T02:53:36.803Z,1018.44
2023-02-22T02:53:50.796Z,1018.44
2023-02-22T02:54:04.786Z,1018.44
2023-02-22T02:54:18.777Z,1018.45
2023-02-22T02:54:32.754Z,1018.44
2023-02-22T02:54:46.757Z,1018.44
2023-02-22T02:55:00.746Z,1018.43
2023-02-22T02:55:14.750Z,1018.43
2023-02-22T02:55:28.747Z,1018.43
2023-02-22T02:55:56.701Z,1018.43
2023-02-22T02:56:10.768Z,1018.43
2023-02-22T02:56:24.793Z,1018.43
2023-02-22T02:56:38.787Z,1018.42
2023-02-22T02:56:52.784Z,1018.42